createdAt,value
2023-04-18T00:01:55.702Z,101100.26
2023-04-18T00:04:23.829Z,101097.16
2023-04-18T00:06:52.055Z,101101.88
2023-04-18T00:09:20.053Z,101094.61
2023-04-18T00:11:48.504Z,101096.36
2023-04-18T00:14:16.599Z,101095.73
2023-04-18T00:16:44.599Z,101098.05
2023-04-18T00:19:12.643Z,101097.86
2023-04-18T00:21:44.706Z,101100.11
2023-04-18T00:24:13.136Z,101096.88
2023-04-18T00:26:41.468Z,101094.62
2023-04-18T00:29:09.284Z,101096.52
2023-04-18T00:31:37.707Z,101093.60
2023-04-18T00:34:05.621Z,101096.67
2023-04-18T00:36:33.620Z,101095.42
2023-04-18T00:39:01.633Z,101090.21
2023-04-18T00:41:30.428Z,101086.85
2023-04-18T00:43:58.348Z,101088.00
2023-04-18T00:46:26.269Z,101087.49
2023-04-18T00:48:54.503Z,101086.48
2023-04-18T00:51:22.744Z,101088.00
2023-04-18T00:53:51.330Z,101087.77
2023-04-18T00:56:19.940Z,101090.52
2023-04-18T00:58:47.784Z,101090.73
2023-04-18T01:01:16.484Z,101093.64
2023-04-18T01:03:45.581Z,101094.20
2023-04-18T01:06:16.540Z,101093.25
2023-04-18T01:08:45.898Z,101091.71
2023-04-18T01:11:13.825Z,101093.35
2023-04-18T01:13:42.180Z,101094.48
2023-04-18T01:16:10.047Z,101094.73
2023-04-18T01:18:40.242Z,101094.25
2023-04-18T01:21:08.621Z,101094.28
2023-04-18T01:23:36.738Z,101092.61
2023-04-18T01:26:04.749Z,101091.85
2023-04-18T01:28:37.045Z,101092.67
2023-04-18T01:31:05.399Z,101093.31
2023-04-18T01:33:33.505Z,101090.08
2023-04-18T01:36:01.431Z,101086.52
2023-04-18T01:38:33.126Z,101087.39
2023-04-18T01:41:02.586Z,101084.65
2023-04-18T01:43:30.808Z,101085.58
2023-04-18T01:45:59.010Z,101086.10
2023-04-18T01:48:27.016Z,101088.23
2023-04-18T01:50:55.143Z,101084.96
2023-04-18T01:53:24.863Z,101090.98
2023-04-18T01:55:53.082Z,101089.45
2023-04-18T01:58:23.679Z,101092.19
2023-04-18T02:00:52.997Z,101093.33
2023-04-18T02:03:22.579Z,101090.92
2023-04-18T02:05:52.233Z,101089.71
2023-04-18T02:08:20.188Z,101087.07
2023-04-18T02:10:48.019Z,101087.71
2023-04-18T02:13:15.979Z,101081.43
2023-04-18T02:15:45.935Z,101084.84
2023-04-18T02:18:17.476Z,101078.40
2023-04-18T02:20:45.613Z,101080.66
2023-04-18T02:23:13.510Z,101081.48
2023-04-18T02:25:41.459Z,101079.07
2023-04-18T02:28:10.677Z,101084.38
2023-04-18T02:30:38.560Z,101079.94
2023-04-18T02:33:06.571Z,101077.67
2023-04-18T02:35:35.606Z,101079.01
2023-04-18T02:38:03.548Z,101071.89
2023-04-18T02:40:31.517Z,101072.88
2023-04-18T02:43:02.108Z,101073.09
2023-04-18T02:45:30.170Z,101076.58
2023-04-18T02:47:59.605Z,101074.48
2023-04-18T02:50:29.131Z,101072.23
2023-04-18T02:52:57.341Z,101073.75
2023-04-18T02:55:30.164Z,101075.36
2023-04-18T02:57:59.623Z,101076.30
2023-04-18T03:00:45.833Z,101078.05
2023-04-18T03:03:36.774Z,101082.05
2023-04-18T03:06:25.278Z,101081.69
2023-04-18T03:08:55.092Z,101083.02
2023-04-18T03:11:24.918Z,101082.04
2023-04-18T03:13:54.105Z,101084.20
2023-04-18T03:16:22.772Z,101083.26
2023-04-18T03:18:50.814Z,101082.67
2023-04-18T03:21:19.529Z,101083.00
2023-04-18T03:23:47.630Z,101086.73
2023-04-18T03:26:16.071Z,101086.54
2023-04-18T03:28:51.979Z,101085.39
2023-04-18T03:31:20.612Z,101093.93
2023-04-18T03:33:49.143Z,101089.81
2023-04-18T03:36:18.145Z,101098.22
2023-04-18T03:38:46.804Z,101094.92
2023-04-18T03:41:15.845Z,101095.70
2023-04-18T03:43:44.178Z,101095.30
2023-04-18T03:46:12.882Z,101099.38
2023-04-18T03:48:40.933Z,101103.48
2023-04-18T03:51:10.420Z,101105.41
2023-04-18T03:53:39.105Z,101107.02
2023-04-18T03:56:07.220Z,101108.38
2023-04-18T03:58:48.960Z,101106.35
2023-04-18T04:05:25.715Z,101107.33
2023-04-18T04:07:54.168Z,101106.80
2023-04-18T04:10:22.089Z,101106.83
2023-04-18T04:12:50.323Z,101109.48
2023-04-18T04:15:18.962Z,101105.02
2023-04-18T04:17:51.840Z,101104.46
2023-04-18T04:20:25.030Z,101101.98
2023-04-18T04:23:00.015Z,101104.89
2023-04-18T04:25:31.130Z,101107.29
2023-04-18T04:28:01.892Z,101110.08
2023-04-18T04:34:38.190Z,101111.61
2023-04-18T04:37:08.308Z,101116.25
2023-04-18T04:39:41.814Z,101116.56
2023-04-18T04:42:25.387Z,101117.84
2023-04-18T04:44:58.688Z,101119.62
2023-04-18T04:47:26.842Z,101121.52
2023-04-18T04:49:55.113Z,101124.09
2023-04-18T04:52:23.083Z,101127.47
2023-04-18T04:54:51.659Z,101126.16
2023-04-18T04:57:20.831Z,101127.36
2023-04-18T04:59:48.874Z,101128.25
2023-04-18T05:02:17.253Z,101128.52
2023-04-18T05:04:45.421Z,101133.81
2023-04-18T05:07:13.414Z,101132.67
2023-04-18T05:09:41.229Z,101134.27
2023-04-18T05:12:09.194Z,101129.83
2023-04-18T05:14:37.164Z,101133.02
2023-04-18T05:17:05.402Z,101133.94
2023-04-18T05:19:33.328Z,101134.10
2023-04-18T05:22:01.294Z,101137.12
2023-04-18T05:24:29.770Z,101139.98
2023-04-18T05:26:57.845Z,101145.71
2023-04-18T05:29:25.925Z,101147.75
2023-04-18T05:31:54.399Z,101142.94
2023-04-18T05:34:22.314Z,101144.67
2023-04-18T05:36:52.090Z,101142.34
2023-04-18T05:39:20.149Z,101142.23
2023-04-18T05:41:48.196Z,101143.27
2023-04-18T05:44:17.360Z,101143.05
2023-04-18T05:46:45.884Z,101142.65
2023-04-18T05:49:13.973Z,101143.16
2023-04-18T05:51:41.863Z,101137.65
2023-04-18T05:54:10.041Z,101137.31
2023-04-18T05:56:39.025Z,101141.05
2023-04-18T05:59:06.891Z,101136.86
2023-04-18T06:01:34.815Z,101141.08
2023-04-18T06:04:02.954Z,101141.59
2023-04-18T06:06:31.595Z,101142.35
2023-04-18T06:08:59.426Z,101138.27
2023-04-18T06:11:28.502Z,101141.52
2023-04-18T06:13:56.387Z,101139.38
2023-04-18T06:16:24.313Z,101144.38
2023-04-18T06:18:52.136Z,101145.91
2023-04-18T06:21:20.943Z,101141.63
2023-04-18T06:23:48.861Z,101145.66
2023-04-18T06:26:17.366Z,101143.71
2023-04-18T06:28:45.443Z,101146.55
2023-04-18T06:31:13.410Z,101150.23
2023-04-18T06:33:41.387Z,101148.79
2023-04-18T06:36:09.909Z,101155.25
2023-04-18T06:38:37.846Z,101154.98
2023-04-18T06:41:05.842Z,101155.95
2023-04-18T06:43:36.308Z,101159.88
2023-04-18T06:46:05.432Z,101158.70
2023-04-18T06:48:33.469Z,101158.73
2023-04-18T06:51:01.561Z,101161.36
2023-04-18T06:53:29.622Z,101157.06
2023-04-18T06:55:57.610Z,101153.65
2023-04-18T06:58:25.692Z,101155.17
2023-04-18T07:00:54.208Z,101158.52
2023-04-18T07:03:22.249Z,101158.45
2023-04-18T07:05:50.795Z,101157.09
2023-04-18T07:08:18.897Z,101162.30
2023-04-18T07:10:46.870Z,101156.16
2023-04-18T07:13:14.825Z,101159.85
2023-04-18T07:15:42.945Z,101163.65
2023-04-18T07:18:11.032Z,101160.73
2023-04-18T07:20:39.087Z,101159.80
2023-04-18T07:23:07.550Z,101163.11
2023-04-18T07:25:35.985Z,101163.53
2023-04-18T07:28:04.540Z,101165.80
2023-04-18T07:30:32.516Z,101163.89
2023-04-18T07:33:03.242Z,101164.23
2023-04-18T07:35:31.500Z,101164.16
2023-04-18T07:37:59.412Z,101164.55
2023-04-18T07:40:27.470Z,101167.02
2023-04-18T07:42:55.464Z,101165.91
2023-04-18T07:45:23.434Z,101165.23
2023-04-18T07:47:51.788Z,101170.64
2023-04-18T07:50:19.837Z,101169.95
2023-04-18T07:52:48.254Z,101171.89
2023-04-18T07:55:16.444Z,101173.09
2023-04-18T07:57:50.202Z,101181.40
2023-04-18T08:00:18.725Z,101178.44
2023-04-18T08:02:46.762Z,101176.12
2023-04-18T08:05:14.840Z,101180.60
2023-04-18T08:07:43.381Z,101181.83
2023-04-18T08:10:11.705Z,101183.64
2023-04-18T08:12:39.796Z,101182.13
2023-04-18T08:15:08.600Z,101178.16
2023-04-18T08:17:37.730Z,101181.02
2023-04-18T08:20:06.471Z,101180.66
2023-04-18T08:22:34.404Z,101183.23
2023-04-18T08:25:05.595Z,101185.60
2023-04-18T08:27:33.874Z,101186.39
2023-04-18T08:30:04.160Z,101187.40
2023-04-18T08:32:32.294Z,101186.60
2023-04-18T08:35:00.895Z,101187.66
2023-04-18T08:37:29.280Z,101185.62
2023-04-18T08:39:57.316Z,101179.08
2023-04-18T08:42:25.533Z,101178.40
2023-04-18T08:44:54.085Z,101179.13
2023-04-18T08:47:22.249Z,101178.30
2023-04-18T08:49:52.209Z,101175.75
2023-04-18T08:52:21.597Z,101172.80
2023-04-18T08:54:51.041Z,101175.12
2023-04-18T08:57:28.547Z,101174.13
2023-04-18T09:00:00.687Z,101169.11
2023-04-18T09:02:42.759Z,101166.86
2023-04-18T09:05:21.650Z,101166.17
2023-04-18T09:07:51.477Z,101159.90
2023-04-18T09:10:30.955Z,101155.71
2023-04-18T09:13:01.083Z,101155.89
2023-04-18T09:15:30.355Z,101157.45
2023-04-18T09:18:01.656Z,101152.48
2023-04-18T09:20:41.182Z,101153.01
2023-04-18T09:23:21.715Z,101150.91
2023-04-18T09:25:52.159Z,101146.50
2023-04-18T09:28:28.055Z,101146.66
2023-04-18T09:30:58.222Z,101143.34
2023-04-18T09:33:33.881Z,101146.25
2023-04-18T09:36:21.266Z,101141.63
2023-04-18T09:38:52.524Z,101141.67
2023-04-18T09:41:23.170Z,101144.50
2023-04-18T09:44:12.382Z,101144.34
2023-04-18T09:46:44.466Z,101144.99
2023-04-18T09:49:14.778Z,101146.33
2023-04-18T09:51:46.843Z,101143.82
2023-04-18T09:54:16.458Z,101141.16
2023-04-18T09:56:45.959Z,101139.99
2023-04-18T09:59:18.652Z,101139.72
2023-04-18T10:01:49.741Z,101139.48
2023-04-18T10:04:19.187Z,101135.67
2023-04-18T10:06:47.376Z,101134.88
2023-04-18T10:09:16.538Z,101130.64
2023-04-18T10:11:46.974Z,101123.16
2023-04-18T10:14:16.749Z,101120.19
2023-04-18T10:16:45.812Z,101120.77
2023-04-18T10:19:25.430Z,101113.82
2023-04-18T10:21:55.190Z,101112.95
2023-04-18T10:24:41.901Z,101110.42
2023-04-18T10:27:09.766Z,101102.28
2023-04-18T10:29:55.868Z,101105.05
2023-04-18T10:32:23.706Z,101104.02
2023-04-18T10:34:53.586Z,101102.63
2023-04-18T10:37:21.538Z,101099.89
2023-04-18T10:40:00.422Z,101101.16
2023-04-18T10:42:46.883Z,101095.67
2023-04-18T10:45:21.547Z,101097.95
2023-04-18T10:47:49.836Z,101099.24
2023-04-18T10:50:17.715Z,101090.66
2023-04-18T10:52:45.690Z,101094.41
2023-04-18T10:55:16.944Z,101088.52
2023-04-18T10:57:46.502Z,101083.48
2023-04-18T11:04:36.309Z,101079.10
2023-04-18T11:07:05.067Z,101073.09
2023-04-18T11:09:33.151Z,101070.70
2023-04-18T11:12:06.473Z,101063.16
2023-04-18T11:14:48.570Z,101064.64
2023-04-18T11:17:20.403Z,101069.29
2023-04-18T11:19:48.458Z,101064.73
2023-04-18T11:22:18.900Z,101065.67
2023-04-18T11:24:46.646Z,101064.02
2023-04-18T11:27:14.476Z,101065.98
2023-04-18T11:29:42.567Z,101060.61
2023-04-18T11:32:10.559Z,101066.61
2023-04-18T11:34:38.383Z,101063.55
2023-04-18T11:37:07.364Z,101059.41
2023-04-18T11:39:36.403Z,101051.51
2023-04-18T11:42:04.297Z,101050.34
2023-04-18T11:44:33.771Z,101047.17
2023-04-18T11:47:03.302Z,101047.70
2023-04-18T11:49:32.249Z,101048.55
2023-04-18T11:52:01.248Z,101040.86
2023-04-18T11:54:42.396Z,101043.63
2023-04-18T11:57:21.055Z,101047.11
2023-04-18T11:59:59.131Z,101042.39
2023-04-18T12:02:28.272Z,101042.11
2023-04-18T12:04:58.284Z,101033.88
2023-04-18T12:07:30.796Z,101040.69
2023-04-18T12:09:58.788Z,101042.84
2023-04-18T12:12:26.713Z,101041.90
2023-04-18T12:15:01.918Z,101040.67
2023-04-18T12:17:31.037Z,101040.11
2023-04-18T12:20:03.962Z,101041.66
2023-04-18T12:22:38.932Z,101036.29
2023-04-18T12:25:10.382Z,101037.56
2023-04-18T12:27:48.126Z,101033.94
2023-04-18T12:30:16.067Z,101029.13
2023-04-18T12:32:44.943Z,101028.70
2023-04-18T12:35:12.787Z,101024.17
2023-04-18T12:37:40.622Z,101019.70
2023-04-18T12:40:08.876Z,101021.51
2023-04-18T12:42:36.836Z,101022.80
2023-04-18T12:45:07.676Z,101024.23
2023-04-18T12:47:35.850Z,101022.77
2023-04-18T12:50:04.092Z,101026.95
2023-04-18T12:52:31.891Z,101022.98
2023-04-18T12:55:00.055Z,101019.69
2023-04-18T12:57:29.415Z,101018.44
2023-04-18T12:59:58.272Z,101015.38
2023-04-18T13:02:28.916Z,101014.03
2023-04-18T13:05:18.483Z,101010.98
2023-04-18T13:07:49.360Z,101010.34
2023-04-18T13:10:18.562Z,101010.98
2023-04-18T13:12:46.852Z,101004.94
2023-04-18T13:15:16.017Z,101004.52
2023-04-18T13:17:44.392Z,101003.27
2023-04-18T13:20:12.683Z,100997.65
2023-04-18T13:22:41.002Z,100995.98
2023-04-18T13:25:12.869Z,100993.55
2023-04-18T13:27:42.100Z,100988.30
2023-04-18T13:30:10.839Z,100986.59
2023-04-18T13:32:40.366Z,100980.34
2023-04-18T13:35:09.538Z,100983.56
2023-04-18T13:37:37.947Z,100984.41
2023-04-18T13:40:12.707Z,100984.30
2023-04-18T13:42:40.556Z,100988.25
2023-04-18T13:45:08.835Z,100986.30
2023-04-18T13:47:37.550Z,100979.38
2023-04-18T13:50:06.178Z,100985.20
2023-04-18T13:52:34.129Z,100978.52
2023-04-18T13:55:02.093Z,100981.20
2023-04-18T13:57:32.259Z,100980.90
2023-04-18T14:00:00.380Z,100976.79
2023-04-18T14:02:28.359Z,100977.77
2023-04-18T14:05:16.503Z,100973.02
2023-04-18T14:07:44.987Z,100966.05
2023-04-18T14:10:12.935Z,100967.96
2023-04-18T14:12:41.018Z,100967.27
2023-04-18T14:15:09.779Z,100967.45
2023-04-18T14:17:37.786Z,100962.95
2023-04-18T14:20:06.653Z,100963.58
2023-04-18T14:22:34.868Z,100966.63
2023-04-18T14:25:02.864Z,100963.69
2023-04-18T14:27:31.489Z,100960.23
2023-04-18T14:29:59.850Z,100958.11
2023-04-18T14:32:27.794Z,100955.88
2023-04-18T14:34:55.721Z,100954.53
2023-04-18T14:37:23.815Z,100949.32
2023-04-18T14:39:51.809Z,100949.14
2023-04-18T14:42:19.701Z,100950.34
2023-04-18T14:44:47.603Z,100951.23
2023-04-18T14:47:15.902Z,100946.33
2023-04-18T14:49:43.754Z,100941.67
2023-04-18T14:52:11.730Z,100946.51
2023-04-18T14:54:39.642Z,100942.86
2023-04-18T14:57:08.468Z,100947.81
2023-04-18T14:59:36.916Z,100941.11
2023-04-18T15:02:05.011Z,100940.92
2023-04-18T15:04:33.210Z,100941.51
2023-04-18T15:07:01.855Z,100936.16
2023-04-18T15:09:29.819Z,100936.80
2023-04-18T15:11:58.379Z,100936.09
2023-04-18T15:14:26.310Z,100929.55
2023-04-18T15:16:54.253Z,100935.40
2023-04-18T15:19:22.265Z,100931.64
2023-04-18T15:21:51.559Z,100931.08
2023-04-18T15:24:19.510Z,100927.89
2023-04-18T15:26:47.933Z,100929.27
2023-04-18T15:29:15.918Z,100928.34
2023-04-18T15:31:44.014Z,100924.82
2023-04-18T15:34:12.112Z,100926.77
2023-04-18T15:36:40.183Z,100924.70
2023-04-18T15:39:09.198Z,100929.09
2023-04-18T15:41:37.558Z,100929.62
2023-04-18T15:44:11.370Z,100928.30
2023-04-18T15:46:39.362Z,100930.27
2023-04-18T15:49:07.265Z,100929.77
2023-04-18T15:51:35.047Z,100929.53
2023-04-18T15:54:03.104Z,100931.00
2023-04-18T15:56:33.659Z,100931.15
2023-04-18T15:59:04.417Z,100930.19
2023-04-18T16:01:33.656Z,100930.74
2023-04-18T16:04:01.741Z,100927.41
2023-04-18T16:06:31.435Z,100932.06
2023-04-18T16:08:59.441Z,100929.64
2023-04-18T16:11:27.669Z,100928.81
2023-04-18T16:14:25.958Z,100930.95
2023-04-18T16:16:54.986Z,100925.21
2023-04-18T16:19:23.166Z,100924.25
2023-04-18T16:21:51.301Z,100925.51
2023-04-18T16:24:19.162Z,100924.86
2023-04-18T16:26:47.024Z,100923.64
2023-04-18T16:29:15.735Z,100917.27
2023-04-18T16:31:43.768Z,100916.61
2023-04-18T16:34:11.749Z,100915.98
2023-04-18T16:36:40.208Z,100916.55
2023-04-18T16:39:08.245Z,100918.13
2023-04-18T16:41:36.254Z,100914.31
2023-04-18T16:44:04.377Z,100909.40
2023-04-18T16:46:32.398Z,100912.30
2023-04-18T16:49:01.623Z,100913.86
2023-04-18T16:51:30.977Z,100909.13
2023-04-18T16:53:59.208Z,100910.70
2023-04-18T16:56:27.026Z,100907.15
2023-04-18T16:58:54.923Z,100908.90
2023-04-18T17:01:23.251Z,100908.75
2023-04-18T17:03:51.631Z,100906.21
2023-04-18T17:06:19.603Z,100908.50
2023-04-18T17:08:48.927Z,100908.70
2023-04-18T17:11:16.887Z,100907.48
2023-04-18T17:13:44.957Z,100911.89
2023-04-18T17:16:12.896Z,100912.76
2023-04-18T17:18:41.776Z,100911.04
2023-04-18T17:21:12.521Z,100907.59
2023-04-18T17:23:42.529Z,100909.86
2023-04-18T17:26:10.568Z,100910.42
2023-04-18T17:28:38.589Z,100909.05
2023-04-18T17:31:06.639Z,100908.73
2023-04-18T17:33:34.606Z,100908.23
2023-04-18T17:36:04.327Z,100908.60
2023-04-18T17:38:34.034Z,100908.45
2023-04-18T17:41:04.565Z,100904.82
2023-04-18T17:43:32.794Z,100902.59
2023-04-18T17:46:01.409Z,100904.17
2023-04-18T17:48:29.670Z,100905.59
2023-04-18T17:50:57.637Z,100905.25
2023-04-18T17:53:25.630Z,100904.58
2023-04-18T17:55:55.375Z,100901.64
2023-04-18T17:58:23.347Z,100905.98
2023-04-18T18:00:51.865Z,100905.50
2023-04-18T18:03:20.361Z,100906.40
2023-04-18T18:05:49.591Z,100912.14
2023-04-18T18:08:17.459Z,100907.80
2023-04-18T18:10:47.076Z,100908.34
2023-04-18T18:13:15.725Z,100909.22
2023-04-18T18:15:43.708Z,100904.54
2023-04-18T18:18:11.717Z,100907.53
2023-04-18T18:20:42.829Z,100903.91
2023-04-18T18:23:11.093Z,100905.84
2023-04-18T18:25:39.142Z,100900.45
2023-04-18T18:28:07.272Z,100900.13
2023-04-18T18:30:37.362Z,100898.05
2023-04-18T18:33:05.728Z,100902.04
2023-04-18T18:35:33.561Z,100896.48
2023-04-18T18:38:01.502Z,100895.79
2023-04-18T18:40:29.798Z,100892.84
2023-04-18T18:42:58.214Z,100891.95
2023-04-18T18:45:26.486Z,100890.58
2023-04-18T18:47:54.888Z,100891.77
2023-04-18T18:50:23.395Z,100889.35
2023-04-18T18:52:51.379Z,100890.40
2023-04-18T18:55:19.353Z,100884.29
2023-04-18T18:57:48.235Z,100884.29
2023-04-18T19:04:56.260Z,100876.30
2023-04-18T19:07:23.013Z,100876.98
2023-04-18T19:09:49.604Z,100874.39
2023-04-18T19:12:15.964Z,100871.80
2023-04-18T19:14:42.533Z,100870.94
2023-04-18T19:17:09.051Z,100872.67
2023-04-18T19:19:36.168Z,100868.85
2023-04-18T19:22:02.702Z,100865.54
2023-04-18T19:24:31.056Z,100862.77
2023-04-18T19:26:58.945Z,100862.59
2023-04-18T19:29:26.050Z,100865.89
2023-04-18T19:31:52.840Z,100858.73
2023-04-18T19:34:21.243Z,100859.61
2023-04-18T19:36:47.860Z,100856.66
2023-04-18T19:39:14.547Z,100853.36
2023-04-18T19:41:41.176Z,100854.41
2023-04-18T19:44:08.015Z,100853.55
2023-04-18T19:46:34.546Z,100854.59
2023-04-18T19:49:00.964Z,100849.56
2023-04-18T19:51:27.505Z,100847.83
2023-04-18T19:53:54.885Z,100848.17
2023-04-18T19:56:21.981Z,100846.95
2023-04-18T19:58:48.548Z,100843.66
2023-04-18T20:01:17.231Z,100844.02
2023-04-18T20:03:43.953Z,100837.76
2023-04-18T20:06:10.741Z,100839.85
2023-04-18T20:08:40.708Z,100840.20
2023-04-18T20:11:08.847Z,100840.20
2023-04-18T20:13:36.824Z,100842.98
2023-04-18T20:16:04.599Z,100835.69
2023-04-18T20:18:31.495Z,100833.78
2023-04-18T20:20:58.023Z,100832.22
2023-04-18T20:23:24.984Z,100831.54
2023-04-18T20:25:51.552Z,100828.92
2023-04-18T20:28:17.924Z,100826.85
2023-04-18T20:30:44.975Z,100828.42
2023-04-18T20:33:11.464Z,100824.08
2023-04-18T20:35:38.286Z,100823.38
2023-04-18T20:38:06.603Z,100823.20
2023-04-18T20:40:33.606Z,100822.16
2023-04-18T20:43:02.437Z,100817.98
2023-04-18T20:45:29.530Z,100818.52
2023-04-18T20:47:56.171Z,100816.61
2023-04-18T20:50:22.588Z,100811.56
2023-04-18T20:52:48.990Z,100808.80
2023-04-18T20:55:16.307Z,100808.10
2023-04-18T20:57:43.107Z,100813.48
2023-04-18T21:00:10.391Z,100807.39
2023-04-18T21:02:36.995Z,100808.09
2023-04-18T21:05:04.141Z,100803.75
2023-04-18T21:07:31.549Z,100797.48
2023-04-18T21:09:58.190Z,100793.49
2023-04-18T21:12:24.629Z,100795.23
2023-04-18T21:14:51.177Z,100790.39
2023-04-18T21:17:18.260Z,100785.69
2023-04-18T21:19:48.333Z,100785.34
2023-04-18T21:22:15.809Z,100782.39
2023-04-18T21:24:43.387Z,100784.81
2023-04-18T21:27:10.081Z,100783.93
2023-04-18T21:29:38.214Z,100782.55
2023-04-18T21:32:05.250Z,100780.46
2023-04-18T21:34:31.773Z,100779.95
2023-04-18T21:36:58.763Z,100774.39
2023-04-18T21:39:26.414Z,100772.83
2023-04-18T21:41:52.928Z,100765.86
2023-04-18T21:44:19.562Z,100768.12
2023-04-18T21:46:45.984Z,100766.03
2023-04-18T21:49:12.779Z,100767.59
2023-04-18T21:51:39.274Z,100760.31
2023-04-18T21:54:07.152Z,100760.66
2023-04-18T21:56:33.697Z,100758.39
2023-04-18T21:59:00.247Z,100757.84
2023-04-18T22:01:26.843Z,100758.53
2023-04-18T22:03:54.314Z,100757.64
2023-04-18T22:06:22.376Z,100753.30
2023-04-18T22:08:49.292Z,100751.75
2023-04-18T22:11:15.686Z,100753.80
2023-04-18T22:13:44.211Z,100747.56
2023-04-18T22:16:11.167Z,100747.37
2023-04-18T22:18:38.181Z,100747.70
2023-04-18T22:21:05.380Z,100743.89
2023-04-18T22:23:32.704Z,100744.23
2023-04-18T22:25:59.281Z,100744.75
2023-04-18T22:28:27.270Z,100740.58
2023-04-18T22:30:53.765Z,100738.85
2023-04-18T22:33:20.714Z,100730.86
2023-04-18T22:35:48.005Z,100735.20
2023-04-18T22:38:14.649Z,100731.89
2023-04-18T22:40:41.219Z,100730.34
2023-04-18T22:43:07.637Z,100726.34
2023-04-18T22:45:34.270Z,100722.35
2023-04-18T22:48:01.078Z,100722.69
2023-04-18T22:50:29.440Z,100716.96
2023-04-18T22:52:56.657Z,100716.44
2023-04-18T22:55:23.356Z,100707.41
2023-04-18T22:57:49.971Z,100711.55
2023-04-18T23:00:16.539Z,100712.57
2023-04-18T23:02:42.975Z,100712.73
2023-04-18T23:05:10.133Z,100705.95
2023-04-18T23:07:36.621Z,100704.55
2023-04-18T23:10:05.752Z,100701.76
2023-04-18T23:12:32.269Z,100697.92
2023-04-18T23:14:58.710Z,100696.02
2023-04-18T23:17:25.207Z,100693.41
2023-04-18T23:19:51.675Z,100693.56
2023-04-18T23:22:18.203Z,100690.43
2023-04-18T23:24:44.739Z,100688.31
2023-04-18T23:27:11.073Z,100688.80
2023-04-18T23:29:38.618Z,100683.35
2023-04-18T23:32:05.815Z,100677.08
2023-04-18T23:34:32.269Z,100672.91
2023-04-18T23:36:59.893Z,100671.52
2023-04-18T23:39:26.996Z,100665.59
2023-04-18T23:41:53.646Z,100661.38
2023-04-18T23:44:20.661Z,100656.72
2023-04-18T23:46:47.331Z,100652.14
2023-04-18T23:49:14.420Z,100654.51
2023-04-18T23:51:40.867Z,100653.95
2023-04-18T23:54:07.401Z,100653.02
2023-04-18T23:56:34.159Z,100652.59
2023-04-18T23:59:00.512Z,100651.36
